createdAt,value
2023-03-23T00:01:21.227Z,17.31
2023-03-23T00:03:51.317Z,17.29
2023-03-23T00:06:22.608Z,17.27
2023-03-23T00:08:58.220Z,17.24
2023-03-23T00:11:30.506Z,17.21
2023-03-23T00:14:02.354Z,17.20
2023-03-23T00:16:38.691Z,17.14
2023-03-23T00:19:08.034Z,17.12
2023-03-23T00:21:38.089Z,17.10
2023-03-23T00:24:14.138Z,17.08
2023-03-23T00:26:48.294Z,17.06
2023-03-23T00:29:22.474Z,17.03
2023-03-23T00:31:50.275Z,17.02
2023-03-23T00:34:23.324Z,16.98
2023-03-23T00:36:54.694Z,16.97
2023-03-23T00:39:21.603Z,16.94
2023-03-23T00:41:49.100Z,16.90
2023-03-23T00:44:22.022Z,16.88
2023-03-23T00:46:50.934Z,16.84
2023-03-23T00:49:20.373Z,16.82
2023-03-23T00:51:47.628Z,16.80
2023-03-23T00:54:14.678Z,16.81
2023-03-23T00:56:41.779Z,16.78
2023-03-23T00:59:09.080Z,16.74
2023-03-23T01:01:36.893Z,16.73
2023-03-23T01:04:07.854Z,16.72
2023-03-23T01:06:40.229Z,16.72
2023-03-23T01:09:10.369Z,16.68
2023-03-23T01:11:37.350Z,16.67
2023-03-23T01:14:04.628Z,16.64
2023-03-23T01:16:31.579Z,16.63
2023-03-23T01:18:58.575Z,16.62
2023-03-23T01:21:26.384Z,16.60
2023-03-23T01:23:53.430Z,16.57
2023-03-23T01:26:23.611Z,16.56
2023-03-23T01:28:51.136Z,16.55
2023-03-23T01:31:21.260Z,16.52
2023-03-23T01:33:48.743Z,16.51
2023-03-23T01:36:18.801Z,16.50
2023-03-23T01:38:47.723Z,16.49
2023-03-23T01:41:15.960Z,16.46
2023-03-23T01:44:07.473Z,16.46
2023-03-23T01:46:35.280Z,16.47
2023-03-23T01:49:10.140Z,16.45
2023-03-23T01:51:42.533Z,16.44
2023-03-23T01:54:15.305Z,16.46
2023-03-23T01:56:51.920Z,16.44
2023-03-23T01:59:19.300Z,16.45
2023-03-23T02:01:47.512Z,16.47
2023-03-23T02:04:17.827Z,16.45
2023-03-23T02:06:45.988Z,16.46
2023-03-23T02:09:20.489Z,16.45
2023-03-23T02:11:55.274Z,16.43
2023-03-23T02:14:24.863Z,16.43
2023-03-23T02:17:18.426Z,16.41
2023-03-23T02:19:57.702Z,16.41
2023-03-23T02:22:43.835Z,16.42
2023-03-23T02:25:24.457Z,16.41
2023-03-23T02:28:22.392Z,16.41
2023-03-23T02:31:23.499Z,16.38
2023-03-23T02:34:06.255Z,16.39
2023-03-23T02:37:04.810Z,16.39
2023-03-23T02:39:39.123Z,16.38
2023-03-23T02:42:13.451Z,16.39
2023-03-23T02:44:45.145Z,16.40
2023-03-23T02:47:20.468Z,16.38
2023-03-23T02:49:52.485Z,16.40
2023-03-23T02:52:26.012Z,16.39
2023-03-23T02:54:54.950Z,16.38
2023-03-23T02:57:24.773Z,16.38
2023-03-23T03:00:12.422Z,16.38
2023-03-23T03:02:42.708Z,16.38
2023-03-23T03:05:31.654Z,16.37
2023-03-23T03:08:25.648Z,16.37
2023-03-23T03:10:56.064Z,16.37
2023-03-23T03:13:35.443Z,16.37
2023-03-23T03:16:08.375Z,16.38
2023-03-23T03:18:50.132Z,16.38
2023-03-23T03:21:21.491Z,16.36
2023-03-23T03:23:50.792Z,16.37
2023-03-23T03:26:18.547Z,16.38
2023-03-23T03:28:49.158Z,16.39
2023-03-23T03:31:20.001Z,16.40
2023-03-23T03:33:48.231Z,16.40
2023-03-23T03:36:21.794Z,16.41
2023-03-23T03:38:51.710Z,16.43
2023-03-23T03:41:19.908Z,16.42
2023-03-23T03:43:47.170Z,16.39
2023-03-23T03:46:14.322Z,16.41
2023-03-23T03:48:41.480Z,16.42
2023-03-23T03:51:10.054Z,16.44
2023-03-23T03:53:37.326Z,16.43
2023-03-23T03:56:05.907Z,16.42
2023-03-23T03:58:32.895Z,16.42
2023-03-23T04:01:01.506Z,16.43
2023-03-23T04:03:28.680Z,16.44
2023-03-23T04:05:58.448Z,16.43
2023-03-23T04:08:28.119Z,16.42
2023-03-23T04:10:55.162Z,16.41
2023-03-23T04:13:22.797Z,16.41
2023-03-23T04:16:07.193Z,16.38
2023-03-23T04:18:37.285Z,16.39
2023-03-23T04:21:05.337Z,16.42
2023-03-23T04:23:35.058Z,16.43
2023-03-23T04:26:02.771Z,16.43
2023-03-23T04:28:30.758Z,16.42
2023-03-23T04:30:57.668Z,16.43
2023-03-23T04:33:26.451Z,16.42
2023-03-23T04:36:17.397Z,16.42
2023-03-23T04:38:44.370Z,16.41
2023-03-23T04:41:11.381Z,16.41
2023-03-23T04:43:42.929Z,16.43
2023-03-23T04:46:10.224Z,16.46
2023-03-23T04:48:37.434Z,16.46
2023-03-23T04:51:05.361Z,16.45
2023-03-23T04:53:33.365Z,16.42
2023-03-23T04:56:02.469Z,16.44
2023-03-23T04:58:30.397Z,16.44
2023-03-23T05:00:57.421Z,16.45
2023-03-23T05:03:24.428Z,16.44
2023-03-23T05:05:54.732Z,16.45
2023-03-23T05:08:23.342Z,16.44
2023-03-23T05:10:55.882Z,16.44
2023-03-23T05:13:23.431Z,16.43
2023-03-23T05:15:50.587Z,16.44
2023-03-23T05:18:18.052Z,16.45
2023-03-23T05:20:47.566Z,16.44
2023-03-23T05:23:14.710Z,16.46
2023-03-23T05:25:42.801Z,16.45
2023-03-23T05:28:12.057Z,16.45
2023-03-23T05:30:40.152Z,16.44
2023-03-23T05:33:07.732Z,16.44
2023-03-23T05:35:34.850Z,16.45
2023-03-23T05:38:03.288Z,16.47
2023-03-23T05:40:31.404Z,16.45
2023-03-23T05:43:00.257Z,16.45
2023-03-23T05:45:27.701Z,16.44
2023-03-23T05:47:54.637Z,16.45
2023-03-23T05:50:21.625Z,16.46
2023-03-23T05:52:48.650Z,16.44
2023-03-23T05:55:16.479Z,16.43
2023-03-23T05:57:43.454Z,16.42
2023-03-23T06:00:15.571Z,16.42
2023-03-23T06:02:46.962Z,16.43
2023-03-23T06:05:14.979Z,16.51
2023-03-23T06:07:42.138Z,16.54
2023-03-23T06:10:10.476Z,16.55
2023-03-23T06:12:38.922Z,16.65
2023-03-23T06:15:07.983Z,16.70
2023-03-23T06:17:36.248Z,16.74
2023-03-23T06:20:11.529Z,16.77
2023-03-23T06:22:39.570Z,16.78
2023-03-23T06:25:07.921Z,16.83
2023-03-23T06:27:34.969Z,16.87
2023-03-23T06:30:02.861Z,16.91
2023-03-23T06:32:32.034Z,16.95
2023-03-23T06:34:59.193Z,16.96
2023-03-23T06:37:26.807Z,16.98
2023-03-23T06:39:53.811Z,17.02
2023-03-23T06:42:21.057Z,17.03
2023-03-23T06:44:48.408Z,17.07
2023-03-23T06:47:15.557Z,17.10
2023-03-23T06:49:42.864Z,17.11
2023-03-23T06:52:09.831Z,17.16
2023-03-23T06:54:37.456Z,16.76
2023-03-23T06:57:04.678Z,16.41
2023-03-23T06:59:32.251Z,16.30
2023-03-23T07:01:59.315Z,16.51
2023-03-23T07:04:26.219Z,16.59
2023-03-23T07:06:53.211Z,16.60
2023-03-23T07:09:21.320Z,16.72
2023-03-23T07:11:49.419Z,16.83
2023-03-23T07:14:16.496Z,16.95
2023-03-23T07:16:43.740Z,17.01
2023-03-23T07:19:11.093Z,17.07
2023-03-23T07:21:38.354Z,17.11
2023-03-23T07:24:05.621Z,16.98
2023-03-23T07:26:33.221Z,17.06
2023-03-23T07:29:00.559Z,17.13
2023-03-23T07:31:27.764Z,17.12
2023-03-23T07:33:54.973Z,17.18
2023-03-23T07:36:22.176Z,17.22
2023-03-23T07:38:49.637Z,17.25
2023-03-23T07:41:16.738Z,17.29
2023-03-23T07:43:43.797Z,17.34
2023-03-23T07:46:10.959Z,17.39
2023-03-23T07:48:39.150Z,17.42
2023-03-23T07:51:08.506Z,17.46
2023-03-23T07:53:35.499Z,17.51
2023-03-23T07:56:04.762Z,17.52
2023-03-23T07:58:31.840Z,17.53
2023-03-23T08:00:59.257Z,17.56
2023-03-23T08:03:26.196Z,17.59
2023-03-23T08:05:53.321Z,17.63
2023-03-23T08:08:20.397Z,17.68
2023-03-23T08:10:47.931Z,17.73
2023-03-23T08:13:15.945Z,17.77
2023-03-23T08:15:43.298Z,17.77
2023-03-23T08:18:10.708Z,17.77
2023-03-23T08:20:38.120Z,17.80
2023-03-23T08:23:05.670Z,17.80
2023-03-23T08:25:32.812Z,17.83
2023-03-23T08:28:02.793Z,17.86
2023-03-23T08:30:31.443Z,17.90
2023-03-23T08:33:00.327Z,17.93
2023-03-23T08:35:27.426Z,18.00
2023-03-23T08:37:55.843Z,17.98
2023-03-23T08:40:24.337Z,18.04
2023-03-23T08:43:00.841Z,18.07
2023-03-23T08:45:29.266Z,18.12
2023-03-23T08:47:57.537Z,18.15
2023-03-23T08:50:28.416Z,18.03
2023-03-23T08:52:56.205Z,17.71
2023-03-23T08:55:24.002Z,17.72
2023-03-23T08:57:51.224Z,17.87
2023-03-23T09:00:21.416Z,17.97
2023-03-23T09:02:52.004Z,18.05
2023-03-23T09:05:22.838Z,18.08
2023-03-23T09:07:54.188Z,18.09
2023-03-23T09:10:22.139Z,18.15
2023-03-23T09:12:49.902Z,18.18
2023-03-23T09:15:23.961Z,18.23
2023-03-23T09:18:00.566Z,18.25
2023-03-23T09:20:29.887Z,18.25
2023-03-23T09:22:59.167Z,18.32
2023-03-23T09:25:28.625Z,18.33
2023-03-23T09:27:59.261Z,18.40
2023-03-23T09:30:33.351Z,18.47
2023-03-23T09:33:05.505Z,18.50
2023-03-23T09:35:35.655Z,18.55
2023-03-23T09:38:03.788Z,18.54
2023-03-23T09:40:50.223Z,18.57
2023-03-23T09:43:49.548Z,18.65
2023-03-23T09:46:19.567Z,18.70
2023-03-23T09:48:59.363Z,18.73
2023-03-23T09:51:52.538Z,18.75
2023-03-23T09:54:26.757Z,18.80
2023-03-23T09:56:55.940Z,18.81
2023-03-23T09:59:45.264Z,18.81
2023-03-23T10:02:21.068Z,18.78
2023-03-23T10:04:56.271Z,18.74
2023-03-23T10:07:27.142Z,18.71
2023-03-23T10:09:58.509Z,18.68
2023-03-23T10:13:01.403Z,18.67
2023-03-23T10:15:32.523Z,18.64
2023-03-23T10:18:02.137Z,18.65
2023-03-23T10:20:58.783Z,18.61
2023-03-23T10:23:59.909Z,18.62
2023-03-23T10:26:51.679Z,18.63
2023-03-23T10:29:34.336Z,18.60
2023-03-23T10:32:26.895Z,18.60
2023-03-23T10:34:59.521Z,18.59
2023-03-23T10:37:39.244Z,18.64
2023-03-23T10:40:18.663Z,18.68
2023-03-23T10:42:49.964Z,18.70
2023-03-23T10:45:17.714Z,18.52
2023-03-23T10:47:51.162Z,18.48
2023-03-23T10:50:30.269Z,18.58
2023-03-23T10:53:00.561Z,18.59
2023-03-23T10:55:41.719Z,18.60
2023-03-23T10:58:11.442Z,18.69
2023-03-23T11:00:45.998Z,18.71
2023-03-23T11:03:17.392Z,18.70
2023-03-23T11:05:55.250Z,18.73
2023-03-23T11:08:32.260Z,18.75
2023-03-23T11:11:11.284Z,18.77
2023-03-23T11:13:47.128Z,18.72
2023-03-23T11:16:48.178Z,18.72
2023-03-23T11:19:27.668Z,18.72
2023-03-23T11:22:01.551Z,18.77
2023-03-23T11:24:29.365Z,18.79
2023-03-23T11:26:59.735Z,18.79
2023-03-23T11:29:30.035Z,18.80
2023-03-23T11:32:09.662Z,18.82
2023-03-23T11:34:43.813Z,18.84
2023-03-23T11:37:17.318Z,18.82
2023-03-23T11:40:16.157Z,18.83
2023-03-23T11:42:48.113Z,18.85
2023-03-23T11:45:39.450Z,18.86
2023-03-23T11:48:44.806Z,18.69
2023-03-23T11:51:19.232Z,18.60
2023-03-23T11:53:49.661Z,18.61
2023-03-23T11:56:28.334Z,18.65
2023-03-23T11:58:57.552Z,18.68
2023-03-23T12:01:37.793Z,18.71
2023-03-23T12:04:14.480Z,18.79
2023-03-23T12:07:12.538Z,18.81
2023-03-23T12:10:10.125Z,18.82
2023-03-23T12:13:04.856Z,18.81
2023-03-23T12:15:44.393Z,18.81
2023-03-23T12:18:14.662Z,18.89
2023-03-23T12:20:55.421Z,18.88
2023-03-23T12:23:33.706Z,18.60
2023-03-23T12:26:09.526Z,18.47
2023-03-23T12:28:51.760Z,18.37
2023-03-23T12:31:37.948Z,18.35
2023-03-23T12:34:23.795Z,18.44
2023-03-23T12:36:53.872Z,18.45
2023-03-23T12:39:33.429Z,18.52
2023-03-23T12:42:09.758Z,18.56
2023-03-23T12:44:44.660Z,18.60
2023-03-23T12:47:30.204Z,18.51
2023-03-23T12:50:01.275Z,18.38
2023-03-23T12:52:40.906Z,18.24
2023-03-23T12:55:48.433Z,18.03
2023-03-23T12:58:20.610Z,17.96
2023-03-23T13:00:53.885Z,17.86
2023-03-23T13:03:40.195Z,17.82
2023-03-23T13:06:21.344Z,17.76
2023-03-23T13:09:29.080Z,17.68
2023-03-23T13:11:59.535Z,17.70
2023-03-23T13:14:47.950Z,17.67
2023-03-23T13:17:47.206Z,17.64
2023-03-23T13:20:42.652Z,17.79
2023-03-23T13:23:13.216Z,18.03
2023-03-23T13:25:45.177Z,18.18
2023-03-23T13:28:19.014Z,18.28
2023-03-23T13:30:56.408Z,18.36
2023-03-23T13:33:24.315Z,18.44
2023-03-23T13:35:54.587Z,18.50
2023-03-23T13:38:32.508Z,18.67
2023-03-23T13:41:07.395Z,18.76
2023-03-23T13:43:37.499Z,18.89
2023-03-23T13:46:12.407Z,18.85
2023-03-23T13:49:17.660Z,18.87
2023-03-23T13:51:45.204Z,18.92
2023-03-23T13:54:24.499Z,18.96
2023-03-23T13:57:04.474Z,18.99
2023-03-23T13:59:49.936Z,19.06
2023-03-23T14:02:39.176Z,19.17
2023-03-23T14:05:19.253Z,19.26
2023-03-23T14:07:57.000Z,19.24
2023-03-23T14:10:24.981Z,19.40
2023-03-23T14:12:55.244Z,19.51
2023-03-23T14:15:22.386Z,19.62
2023-03-23T14:17:52.296Z,19.59
2023-03-23T14:20:31.507Z,19.44
2023-03-23T14:22:58.511Z,19.46
2023-03-23T14:25:30.665Z,19.63
2023-03-23T14:27:58.454Z,19.78
2023-03-23T14:30:28.466Z,19.87
2023-03-23T14:33:06.890Z,19.93
2023-03-23T14:35:40.188Z,19.99
2023-03-23T14:38:17.666Z,20.05
2023-03-23T14:40:45.413Z,20.11
2023-03-23T14:43:17.250Z,20.15
2023-03-23T14:45:44.935Z,20.24
2023-03-23T14:48:16.709Z,20.34
2023-03-23T14:50:52.948Z,20.38
2023-03-23T14:53:24.770Z,20.47
2023-03-23T14:55:54.534Z,20.50
2023-03-23T14:58:24.215Z,20.54
2023-03-23T15:00:57.828Z,20.58
2023-03-23T15:03:25.061Z,20.60
2023-03-23T15:05:56.725Z,20.63
2023-03-23T15:08:35.834Z,20.65
2023-03-23T15:11:14.880Z,20.66
2023-03-23T15:13:47.106Z,20.66
2023-03-23T15:16:22.160Z,20.67
2023-03-23T15:18:55.212Z,20.70
2023-03-23T15:21:30.430Z,20.71
2023-03-23T15:23:58.970Z,20.74
2023-03-23T15:26:28.561Z,20.77
2023-03-23T15:29:17.842Z,20.74
2023-03-23T15:32:02.418Z,20.75
2023-03-23T15:34:45.038Z,20.74
2023-03-23T15:37:31.273Z,20.50
2023-03-23T15:40:00.524Z,20.54
2023-03-23T15:42:34.004Z,20.60
2023-03-23T15:45:09.855Z,20.55
2023-03-23T15:47:48.382Z,20.48
2023-03-23T15:50:18.896Z,20.48
2023-03-23T15:52:47.803Z,20.48
2023-03-23T15:55:24.697Z,20.46
2023-03-23T15:57:53.060Z,20.49
2023-03-23T16:00:23.205Z,20.46
2023-03-23T16:02:55.919Z,20.39
2023-03-23T16:05:23.409Z,20.37
2023-03-23T16:07:51.996Z,20.26
2023-03-23T16:10:22.048Z,20.19
2023-03-23T16:12:49.305Z,20.19
2023-03-23T16:15:17.006Z,20.19
2023-03-23T16:17:44.670Z,20.20
2023-03-23T16:20:20.942Z,20.16
2023-03-23T16:22:49.189Z,20.18
2023-03-23T16:25:17.478Z,20.21
2023-03-23T16:30:20.435Z,20.26
2023-03-23T16:32:47.994Z,20.22
2023-03-23T16:35:16.140Z,20.23
2023-03-23T16:38:06.860Z,20.24
2023-03-23T16:40:35.181Z,20.19
2023-03-23T16:43:02.259Z,20.20
2023-03-23T16:45:44.157Z,20.19
2023-03-23T16:48:12.846Z,20.22
2023-03-23T16:50:40.536Z,20.22
2023-03-23T16:53:09.096Z,20.16
2023-03-23T16:55:37.594Z,20.21
2023-03-23T16:58:16.299Z,20.24
2023-03-23T17:00:45.661Z,20.18
2023-03-23T17:03:13.856Z,19.94
2023-03-23T17:05:41.323Z,19.80
2023-03-23T17:08:08.618Z,19.82
2023-03-23T17:10:38.976Z,19.84
2023-03-23T17:13:06.657Z,19.86
2023-03-23T17:15:36.656Z,19.85
2023-03-23T17:18:04.150Z,19.84
2023-03-23T17:20:35.089Z,19.79
2023-03-23T17:23:02.859Z,19.77
2023-03-23T17:25:33.245Z,19.76
2023-03-23T17:28:05.579Z,19.77
2023-03-23T17:30:33.383Z,19.74
2023-03-23T17:33:00.564Z,19.74
2023-03-23T17:35:27.875Z,19.68
2023-03-23T17:37:55.667Z,19.68
2023-03-23T17:40:22.877Z,19.68
2023-03-23T17:42:49.998Z,19.66
2023-03-23T17:45:17.382Z,19.63
2023-03-23T17:47:44.549Z,19.63
2023-03-23T17:50:12.672Z,19.64
2023-03-23T17:52:40.918Z,19.59
2023-03-23T17:55:08.818Z,19.59
2023-03-23T17:57:36.008Z,19.56
2023-03-23T18:00:05.387Z,19.53
2023-03-23T18:02:32.579Z,19.53
2023-03-23T18:05:00.219Z,19.49
2023-03-23T18:07:27.847Z,19.49
2023-03-23T18:10:01.359Z,19.48
2023-03-23T18:12:28.903Z,19.47
2023-03-23T18:14:59.867Z,19.44
2023-03-23T18:17:27.962Z,19.39
2023-03-23T18:19:55.926Z,19.39
2023-03-23T18:22:23.325Z,19.19
2023-03-23T18:24:50.588Z,19.21
2023-03-23T18:27:17.949Z,19.26
2023-03-23T18:29:44.950Z,19.25
2023-03-23T18:32:12.149Z,19.24
2023-03-23T18:34:42.038Z,19.22
2023-03-23T18:37:09.535Z,19.20
2023-03-23T18:39:38.522Z,19.21
2023-03-23T18:42:06.749Z,19.21
2023-03-23T18:44:34.362Z,19.21
2023-03-23T18:47:01.691Z,19.22
2023-03-23T18:49:30.452Z,19.24
2023-03-23T18:51:57.602Z,19.25
2023-03-23T18:54:26.238Z,19.09
2023-03-23T18:56:53.638Z,18.81
2023-03-23T18:59:24.485Z,18.59
2023-03-23T19:01:52.373Z,18.53
2023-03-23T19:04:23.088Z,18.76
2023-03-23T19:06:50.679Z,18.92
2023-03-23T19:09:19.294Z,18.99
2023-03-23T19:11:47.747Z,19.02
2023-03-23T19:14:15.813Z,19.05
2023-03-23T19:16:43.159Z,19.14
2023-03-23T19:19:10.899Z,19.17
2023-03-23T19:21:40.368Z,19.26
2023-03-23T19:24:08.873Z,19.28
2023-03-23T19:26:41.917Z,19.33
2023-03-23T19:29:26.750Z,19.37
2023-03-23T19:31:57.177Z,19.44
2023-03-23T19:34:26.275Z,19.43
2023-03-23T19:37:03.103Z,19.42
2023-03-23T19:39:34.592Z,19.47
2023-03-23T19:42:04.421Z,19.52
2023-03-23T19:44:32.628Z,19.53
2023-03-23T19:47:00.023Z,19.55
2023-03-23T19:49:27.928Z,19.57
2023-03-23T19:52:08.961Z,19.59
2023-03-23T19:54:39.605Z,19.60
2023-03-23T19:57:07.871Z,19.62
2023-03-23T19:59:35.679Z,19.62
2023-03-23T20:02:04.206Z,19.64
2023-03-23T20:04:31.569Z,19.62
2023-03-23T20:07:00.035Z,19.61
2023-03-23T20:09:27.581Z,19.61
2023-03-23T20:11:54.785Z,19.58
2023-03-23T20:14:22.046Z,19.58
2023-03-23T20:16:49.229Z,19.57
2023-03-23T20:19:16.822Z,19.60
2023-03-23T20:21:45.664Z,19.63
2023-03-23T20:24:13.638Z,19.73
2023-03-23T20:26:43.956Z,19.86
2023-03-23T20:29:11.608Z,19.94
2023-03-23T20:31:43.257Z,19.96
2023-03-23T20:34:14.512Z,19.99
2023-03-23T20:36:46.681Z,20.05
2023-03-23T20:39:21.826Z,20.14
2023-03-23T20:41:54.904Z,20.13
2023-03-23T20:44:25.673Z,20.13
2023-03-23T20:46:54.408Z,20.16
2023-03-23T20:49:22.438Z,20.20
2023-03-23T20:51:52.455Z,20.29
2023-03-23T20:54:22.516Z,20.33
2023-03-23T20:56:50.183Z,20.37
2023-03-23T20:59:18.169Z,20.40
2023-03-23T21:01:47.269Z,20.46
2023-03-23T21:04:25.013Z,20.47
2023-03-23T21:06:52.681Z,20.50
2023-03-23T21:09:22.042Z,20.49
2023-03-23T21:11:50.134Z,20.52
2023-03-23T21:14:18.297Z,20.54
2023-03-23T21:16:46.966Z,20.55
2023-03-23T21:19:14.908Z,20.57
2023-03-23T21:21:55.947Z,20.56
2023-03-23T21:24:29.280Z,20.57
2023-03-23T21:27:00.778Z,20.56
2023-03-23T21:29:28.653Z,20.56
2023-03-23T21:34:28.367Z,20.59
2023-03-23T21:36:56.045Z,20.61
2023-03-23T21:39:23.639Z,20.60
2023-03-23T21:41:51.972Z,20.60
2023-03-23T21:44:20.705Z,20.62
2023-03-23T21:46:48.735Z,20.52
2023-03-23T21:49:18.840Z,20.46
2023-03-23T21:51:49.421Z,20.43
2023-03-23T21:54:16.907Z,20.42
2023-03-23T21:56:44.238Z,20.39
2023-03-23T21:59:11.653Z,20.38
2023-03-23T22:01:40.702Z,20.37
2023-03-23T22:04:09.239Z,20.35
2023-03-23T22:06:36.469Z,20.32
2023-03-23T22:09:05.881Z,20.27
2023-03-23T22:11:33.615Z,20.22
2023-03-23T22:14:01.371Z,20.10
2023-03-23T22:16:28.908Z,20.00
2023-03-23T22:18:59.588Z,19.87
2023-03-23T22:21:28.789Z,19.73
2023-03-23T22:23:58.314Z,19.80
2023-03-23T22:26:27.739Z,19.81
2023-03-23T22:28:55.933Z,19.83
2023-03-23T22:31:28.985Z,19.82
2023-03-23T22:33:57.950Z,19.80
2023-03-23T22:36:27.013Z,19.77
2023-03-23T22:38:55.926Z,19.74
2023-03-23T22:41:28.835Z,19.66
2023-03-23T22:43:56.153Z,19.62
2023-03-23T22:46:24.821Z,19.56
2023-03-23T22:48:51.958Z,19.52
2023-03-23T22:51:20.353Z,19.47
2023-03-23T22:53:48.187Z,19.44
2023-03-23T22:56:16.549Z,19.40
2023-03-23T22:58:44.279Z,19.34
2023-03-23T23:01:22.942Z,19.31
2023-03-23T23:03:50.126Z,19.26
2023-03-23T23:06:18.431Z,19.24
2023-03-23T23:08:47.160Z,19.21
2023-03-23T23:11:16.631Z,19.19
2023-03-23T23:13:44.406Z,19.16
2023-03-23T23:16:13.620Z,19.12
2023-03-23T23:18:41.045Z,19.07
2023-03-23T23:21:14.779Z,19.05
2023-03-23T23:23:42.146Z,19.02
2023-03-23T23:26:10.003Z,19.00
2023-03-23T23:28:37.174Z,18.98
2023-03-23T23:31:06.755Z,18.96
2023-03-23T23:33:33.983Z,18.93
2023-03-23T23:36:02.110Z,18.91
2023-03-23T23:38:29.139Z,18.89
2023-03-23T23:40:56.181Z,18.89
2023-03-23T23:43:23.270Z,18.85
2023-03-23T23:45:50.259Z,18.83
2023-03-23T23:48:17.466Z,18.83
2023-03-23T23:50:44.682Z,18.81
2023-03-23T23:53:13.333Z,18.77
2023-03-23T23:55:40.726Z,18.73
2023-03-23T23:58:08.135Z,18.71
